sensor_id;sensor_type;location;lat;lon;timestamp;temperature;humidity
69281;SHT31;56392;51.082;17.080;2023-07-31T00:04:15;18.92;77.42
69281;SHT31;56392;51.082;17.080;2023-07-31T00:09:38;18.81;77.34
69281;SHT31;56392;51.082;17.080;2023-07-31T00:15:01;18.82;77.32
69281;SHT31;56392;51.082;17.080;2023-07-31T00:20:26;18.88;77.07
69281;SHT31;56392;51.082;17.080;2023-07-31T00:25:49;18.92;76.73
69281;SHT31;56392;51.082;17.080;2023-07-31T00:31:13;19.03;76.07
69281;SHT31;56392;51.082;17.080;2023-07-31T00:36:37;19.02;76.10
69281;SHT31;56392;51.082;17.080;2023-07-31T00:42:00;19.04;76.17
69281;SHT31;56392;51.082;17.080;2023-07-31T00:47:23;19.04;75.72
69281;SHT31;56392;51.082;17.080;2023-07-31T00:52:48;19.02;75.21
69281;SHT31;56392;51.082;17.080;2023-07-31T00:58:11;18.98;75.11
69281;SHT31;56392;51.082;17.080;2023-07-31T01:03:34;18.91;74.94
69281;SHT31;56392;51.082;17.080;2023-07-31T01:09:02;18.88;74.74
69281;SHT31;56392;51.082;17.080;2023-07-31T01:14:26;18.81;74.87
69281;SHT31;56392;51.082;17.080;2023-07-31T01:19:50;18.85;74.23
69281;SHT31;56392;51.082;17.080;2023-07-31T01:25:35;18.85;74.12
69281;SHT31;56392;51.082;17.080;2023-07-31T01:31:07;18.68;74.05
69281;SHT31;56392;51.082;17.080;2023-07-31T01:36:31;18.65;73.71
69281;SHT31;56392;51.082;17.080;2023-07-31T01:41:54;18.68;73.24
69281;SHT31;56392;51.082;17.080;2023-07-31T01:47:19;18.69;73.31
69281;SHT31;56392;51.082;17.080;2023-07-31T01:52:42;18.65;73.25
69281;SHT31;56392;51.082;17.080;2023-07-31T01:58:05;18.68;73.08
69281;SHT31;56392;51.082;17.080;2023-07-31T02:03:29;18.83;72.89
69281;SHT31;56392;51.082;17.080;2023-07-31T02:08:52;18.79;73.41
69281;SHT31;56392;51.082;17.080;2023-07-31T02:14:15;18.62;73.87
69281;SHT31;56392;51.082;17.080;2023-07-31T02:19:40;18.52;74.69
69281;SHT31;56392;51.082;17.080;2023-07-31T02:25:04;18.58;74.36
69281;SHT31;56392;51.082;17.080;2023-07-31T02:30:27;18.65;73.56
69281;SHT31;56392;51.082;17.080;2023-07-31T02:35:51;18.73;73.08
69281;SHT31;56392;51.082;17.080;2023-07-31T02:41:14;18.76;72.70
69281;SHT31;56392;51.082;17.080;2023-07-31T02:46:37;18.72;72.96
69281;SHT31;56392;51.082;17.080;2023-07-31T02:52:03;18.76;72.72
69281;SHT31;56392;51.082;17.080;2023-07-31T02:57:27;18.75;72.70
69281;SHT31;56392;51.082;17.080;2023-07-31T03:02:50;18.68;72.59
69281;SHT31;56392;51.082;17.080;2023-07-31T03:08:15;18.56;72.99
69281;SHT31;56392;51.082;17.080;2023-07-31T03:13:38;18.45;72.83
69281;SHT31;56392;51.082;17.080;2023-07-31T03:19:01;18.41;72.96
69281;SHT31;56392;51.082;17.080;2023-07-31T03:24:26;18.34;73.05
69281;SHT31;56392;51.082;17.080;2023-07-31T03:29:49;18.20;73.30
69281;SHT31;56392;51.082;17.080;2023-07-31T03:35:13;18.15;73.67
69281;SHT31;56392;51.082;17.080;2023-07-31T03:40:38;18.24;73.03
69281;SHT31;56392;51.082;17.080;2023-07-31T03:46:01;18.13;73.46
69281;SHT31;56392;51.082;17.080;2023-07-31T03:51:24;18.08;73.51
69281;SHT31;56392;51.082;17.080;2023-07-31T03:56:49;17.97;73.85
69281;SHT31;56392;51.082;17.080;2023-07-31T04:02:12;17.97;74.52
69281;SHT31;56392;51.082;17.080;2023-07-31T04:07:36;18.05;73.66
69281;SHT31;56392;51.082;17.080;2023-07-31T04:13:01;18.15;73.00
69281;SHT31;56392;51.082;17.080;2023-07-31T04:18:24;18.25;72.63
69281;SHT31;56392;51.082;17.080;2023-07-31T04:23:48;18.42;71.89
69281;SHT31;56392;51.082;17.080;2023-07-31T04:29:15;18.41;72.24
69281;SHT31;56392;51.082;17.080;2023-07-31T04:34:38;18.55;71.47
69281;SHT31;56392;51.082;17.080;2023-07-31T04:40:02;18.73;70.69
69281;SHT31;56392;51.082;17.080;2023-07-31T04:45:26;18.73;71.23
69281;SHT31;56392;51.082;17.080;2023-07-31T04:50:49;18.83;71.75
69281;SHT31;56392;51.082;17.080;2023-07-31T04:56:15;18.96;71.17
69281;SHT31;56392;51.082;17.080;2023-07-31T05:01:40;19.07;69.91
69281;SHT31;56392;51.082;17.080;2023-07-31T05:07:03;19.23;69.38
69281;SHT31;56392;51.082;17.080;2023-07-31T05:12:27;19.47;69.27
69281;SHT31;56392;51.082;17.080;2023-07-31T05:17:51;19.73;67.91
69281;SHT31;56392;51.082;17.080;2023-07-31T05:23:15;19.98;67.32
69281;SHT31;56392;51.082;17.080;2023-07-31T05:28:40;20.12;66.31
69281;SHT31;56392;51.082;17.080;2023-07-31T05:34:05;20.18;66.18
69281;SHT31;56392;51.082;17.080;2023-07-31T05:39:28;20.28;66.52
69281;SHT31;56392;51.082;17.080;2023-07-31T05:44:51;20.35;66.18
69281;SHT31;56392;51.082;17.080;2023-07-31T05:50:16;20.43;66.01
69281;SHT31;56392;51.082;17.080;2023-07-31T05:55:39;20.60;66.06
69281;SHT31;56392;51.082;17.080;2023-07-31T06:01:02;20.87;65.70
69281;SHT31;56392;51.082;17.080;2023-07-31T06:06:26;20.90;64.42
69281;SHT31;56392;51.082;17.080;2023-07-31T06:11:50;21.04;63.78
69281;SHT31;56392;51.082;17.080;2023-07-31T06:17:13;21.11;63.76
69281;SHT31;56392;51.082;17.080;2023-07-31T06:22:38;21.08;63.90
69281;SHT31;56392;51.082;17.080;2023-07-31T06:28:01;21.11;64.04
69281;SHT31;56392;51.082;17.080;2023-07-31T06:33:24;21.18;64.26
69281;SHT31;56392;51.082;17.080;2023-07-31T06:38:49;21.30;64.65
69281;SHT31;56392;51.082;17.080;2023-07-31T06:44:12;21.28;63.31
69281;SHT31;56392;51.082;17.080;2023-07-31T06:49:35;21.34;62.90
69281;SHT31;56392;51.082;17.080;2023-07-31T06:55:14;21.66;62.32
69281;SHT31;56392;51.082;17.080;2023-07-31T07:00:38;21.81;63.25
69281;SHT31;56392;51.082;17.080;2023-07-31T07:06:01;21.76;62.01
69281;SHT31;56392;51.082;17.080;2023-07-31T07:11:25;21.72;63.15
69281;SHT31;56392;51.082;17.080;2023-07-31T07:16:50;21.75;62.87
69281;SHT31;56392;51.082;17.080;2023-07-31T07:22:14;21.83;62.82
69281;SHT31;56392;51.082;17.080;2023-07-31T07:27:38;22.05;62.62
69281;SHT31;56392;51.082;17.080;2023-07-31T07:33:01;22.20;62.08
69281;SHT31;56392;51.082;17.080;2023-07-31T07:38:24;22.46;62.36
69281;SHT31;56392;51.082;17.080;2023-07-31T07:43:49;22.65;61.14
69281;SHT31;56392;51.082;17.080;2023-07-31T07:49:13;22.83;59.38
69281;SHT31;56392;51.082;17.080;2023-07-31T07:54:36;23.12;57.84
69281;SHT31;56392;51.082;17.080;2023-07-31T08:00:00;23.67;56.44
69281;SHT31;56392;51.082;17.080;2023-07-31T08:05:23;24.21;54.44
69281;SHT31;56392;51.082;17.080;2023-07-31T08:10:46;24.79;53.97
69281;SHT31;56392;51.082;17.080;2023-07-31T08:16:12;25.48;53.84
69281;SHT31;56392;51.082;17.080;2023-07-31T08:21:38;25.92;52.45
69281;SHT31;56392;51.082;17.080;2023-07-31T08:27:01;26.59;52.19
69281;SHT31;56392;51.082;17.080;2023-07-31T08:32:26;26.66;50.47
69281;SHT31;56392;51.082;17.080;2023-07-31T08:37:49;26.75;47.48
69281;SHT31;56392;51.082;17.080;2023-07-31T08:43:12;26.42;49.24
69281;SHT31;56392;51.082;17.080;2023-07-31T08:48:37;26.29;50.42
69281;SHT31;56392;51.082;17.080;2023-07-31T08:54:01;25.82;51.49
69281;SHT31;56392;51.082;17.080;2023-07-31T08:59:26;25.23;52.42
69281;SHT31;56392;51.082;17.080;2023-07-31T09:04:52;24.89;53.93
69281;SHT31;56392;51.082;17.080;2023-07-31T09:10:15;24.41;53.46
69281;SHT31;56392;51.082;17.080;2023-07-31T09:15:39;24.04;53.50
69281;SHT31;56392;51.082;17.080;2023-07-31T09:21:05;24.28;53.33
69281;SHT31;56392;51.082;17.080;2023-07-31T09:26:30;25.12;51.62
69281;SHT31;56392;51.082;17.080;2023-07-31T09:31:54;24.28;51.47
69281;SHT31;56392;51.082;17.080;2023-07-31T09:37:18;23.67;51.63
69281;SHT31;56392;51.082;17.080;2023-07-31T09:42:41;23.36;52.05
69281;SHT31;56392;51.082;17.080;2023-07-31T09:48:07;23.09;53.01
69281;SHT31;56392;51.082;17.080;2023-07-31T09:53:37;23.06;53.80
69281;SHT31;56392;51.082;17.080;2023-07-31T09:59:04;23.05;54.16
69281;SHT31;56392;51.082;17.080;2023-07-31T10:04:27;22.98;54.79
69281;SHT31;56392;51.082;17.080;2023-07-31T10:09:53;22.98;55.46
69281;SHT31;56392;51.082;17.080;2023-07-31T10:15:17;22.83;56.22
69281;SHT31;56392;51.082;17.080;2023-07-31T10:20:41;22.84;56.59
69281;SHT31;56392;51.082;17.080;2023-07-31T10:26:07;22.90;57.00
69281;SHT31;56392;51.082;17.080;2023-07-31T10:31:30;22.96;55.97
69281;SHT31;56392;51.082;17.080;2023-07-31T10:37:22;22.98;56.24
69281;SHT31;56392;51.082;17.080;2023-07-31T10:42:48;23.19;55.17
69281;SHT31;56392;51.082;17.080;2023-07-31T10:48:13;23.18;55.45
69281;SHT31;56392;51.082;17.080;2023-07-31T10:53:36;23.14;55.68
69281;SHT31;56392;51.082;17.080;2023-07-31T10:59:01;23.04;55.66
69281;SHT31;56392;51.082;17.080;2023-07-31T11:04:26;23.18;55.74
69281;SHT31;56392;51.082;17.080;2023-07-31T11:09:49;23.35;55.19
69281;SHT31;56392;51.082;17.080;2023-07-31T11:15:15;23.93;53.61
69281;SHT31;56392;51.082;17.080;2023-07-31T11:20:38;24.48;53.30
69281;SHT31;56392;51.082;17.080;2023-07-31T11:26:02;24.69;52.61
69281;SHT31;56392;51.082;17.080;2023-07-31T11:31:26;24.71;52.28
69281;SHT31;56392;51.082;17.080;2023-07-31T11:36:53;24.93;51.98
69281;SHT31;56392;51.082;17.080;2023-07-31T11:42:16;25.26;51.79
69281;SHT31;56392;51.082;17.080;2023-07-31T11:47:40;25.26;51.02
69281;SHT31;56392;51.082;17.080;2023-07-31T11:53:07;25.13;50.68
69281;SHT31;56392;51.082;17.080;2023-07-31T11:58:34;25.09;50.31
69281;SHT31;56392;51.082;17.080;2023-07-31T12:03:59;25.30;50.73
69281;SHT31;56392;51.082;17.080;2023-07-31T12:09:22;25.51;50.16
69281;SHT31;56392;51.082;17.080;2023-07-31T12:14:45;25.47;50.28
69281;SHT31;56392;51.082;17.080;2023-07-31T12:20:11;25.19;49.60
69281;SHT31;56392;51.082;17.080;2023-07-31T12:25:34;25.16;49.89
69281;SHT31;56392;51.082;17.080;2023-07-31T12:30:58;25.20;50.46
69281;SHT31;56392;51.082;17.080;2023-07-31T12:36:24;25.34;50.06
69281;SHT31;56392;51.082;17.080;2023-07-31T12:41:47;25.37;50.33
69281;SHT31;56392;51.082;17.080;2023-07-31T12:47:11;25.20;50.64
69281;SHT31;56392;51.082;17.080;2023-07-31T12:52:38;25.27;50.75
69281;SHT31;56392;51.082;17.080;2023-07-31T12:58:01;25.20;50.53
69281;SHT31;56392;51.082;17.080;2023-07-31T13:03:24;24.76;51.11
69281;SHT31;56392;51.082;17.080;2023-07-31T13:08:48;24.69;50.99
69281;SHT31;56392;51.082;17.080;2023-07-31T13:14:11;24.72;50.90
69281;SHT31;56392;51.082;17.080;2023-07-31T13:19:34;24.76;51.02
69281;SHT31;56392;51.082;17.080;2023-07-31T13:24:59;24.68;51.03
69281;SHT31;56392;51.082;17.080;2023-07-31T13:30:22;24.78;51.00
69281;SHT31;56392;51.082;17.080;2023-07-31T13:35:45;24.93;51.31
69281;SHT31;56392;51.082;17.080;2023-07-31T13:41:09;25.02;51.62
69281;SHT31;56392;51.082;17.080;2023-07-31T13:46:32;24.95;50.95
69281;SHT31;56392;51.082;17.080;2023-07-31T13:51:56;25.02;51.50
69281;SHT31;56392;51.082;17.080;2023-07-31T13:57:20;24.82;51.36
69281;SHT31;56392;51.082;17.080;2023-07-31T14:02:44;24.69;52.71
69281;SHT31;56392;51.082;17.080;2023-07-31T14:08:08;24.58;52.47
69281;SHT31;56392;51.082;17.080;2023-07-31T14:13:32;24.61;52.34
69281;SHT31;56392;51.082;17.080;2023-07-31T14:18:55;24.75;51.45
69281;SHT31;56392;51.082;17.080;2023-07-31T14:24:20;24.83;51.06
69281;SHT31;56392;51.082;17.080;2023-07-31T14:29:44;24.79;50.76
69281;SHT31;56392;51.082;17.080;2023-07-31T14:35:07;24.71;51.45
69281;SHT31;56392;51.082;17.080;2023-07-31T14:40:30;24.64;51.58
69281;SHT31;56392;51.082;17.080;2023-07-31T14:45:55;24.54;51.60
69281;SHT31;56392;51.082;17.080;2023-07-31T14:51:21;24.32;51.57
69281;SHT31;56392;51.082;17.080;2023-07-31T14:56:43;24.25;51.68
69281;SHT31;56392;51.082;17.080;2023-07-31T15:02:08;24.28;51.80
69281;SHT31;56392;51.082;17.080;2023-07-31T15:07:31;24.14;51.45
69281;SHT31;56392;51.082;17.080;2023-07-31T15:12:54;24.28;51.13
69281;SHT31;56392;51.082;17.080;2023-07-31T15:18:19;24.34;51.14
69281;SHT31;56392;51.082;17.080;2023-07-31T15:23:42;24.38;51.44
69281;SHT31;56392;51.082;17.080;2023-07-31T15:29:06;24.48;51.35
69281;SHT31;56392;51.082;17.080;2023-07-31T15:34:34;24.41;51.28
69281;SHT31;56392;51.082;17.080;2023-07-31T15:39:57;24.42;50.61
69281;SHT31;56392;51.082;17.080;2023-07-31T15:45:20;24.37;50.95
69281;SHT31;56392;51.082;17.080;2023-07-31T15:50:44;24.39;50.46
69281;SHT31;56392;51.082;17.080;2023-07-31T15:56:07;24.35;50.06
69281;SHT31;56392;51.082;17.080;2023-07-31T16:01:30;24.27;51.96
69281;SHT31;56392;51.082;17.080;2023-07-31T16:06:55;24.29;50.54
69281;SHT31;56392;51.082;17.080;2023-07-31T16:12:18;24.14;51.75
69281;SHT31;56392;51.082;17.080;2023-07-31T16:17:41;24.10;50.75
69281;SHT31;56392;51.082;17.080;2023-07-31T16:23:06;24.04;51.25
69281;SHT31;56392;51.082;17.080;2023-07-31T16:28:29;23.93;51.58
69281;SHT31;56392;51.082;17.080;2023-07-31T16:33:52;23.98;51.64
69281;SHT31;56392;51.082;17.080;2023-07-31T16:39:17;23.98;51.93
69281;SHT31;56392;51.082;17.080;2023-07-31T16:44:42;24.01;52.00
69281;SHT31;56392;51.082;17.080;2023-07-31T16:50:06;24.03;52.29
69281;SHT31;56392;51.082;17.080;2023-07-31T16:55:30;24.01;52.63
69281;SHT31;56392;51.082;17.080;2023-07-31T17:00:55;24.03;53.24
69281;SHT31;56392;51.082;17.080;2023-07-31T17:06:20;24.00;53.49
69281;SHT31;56392;51.082;17.080;2023-07-31T17:11:47;23.97;53.95
69281;SHT31;56392;51.082;17.080;2023-07-31T17:17:10;23.96;53.95
69281;SHT31;56392;51.082;17.080;2023-07-31T17:22:33;23.93;53.87
69281;SHT31;56392;51.082;17.080;2023-07-31T17:27:57;23.88;54.27
69281;SHT31;56392;51.082;17.080;2023-07-31T17:33:20;23.84;54.76
69281;SHT31;56392;51.082;17.080;2023-07-31T17:38:43;23.76;54.90
69281;SHT31;56392;51.082;17.080;2023-07-31T17:44:09;23.71;54.75
69281;SHT31;56392;51.082;17.080;2023-07-31T17:49:32;23.65;54.87
69281;SHT31;56392;51.082;17.080;2023-07-31T17:54:55;23.62;54.60
69281;SHT31;56392;51.082;17.080;2023-07-31T18:00:20;23.53;54.95
69281;SHT31;56392;51.082;17.080;2023-07-31T18:05:44;23.41;56.14
69281;SHT31;56392;51.082;17.080;2023-07-31T18:11:09;23.32;57.11
69281;SHT31;56392;51.082;17.080;2023-07-31T18:16:37;23.22;57.66
69281;SHT31;56392;51.082;17.080;2023-07-31T18:22:00;23.20;57.35
69281;SHT31;56392;51.082;17.080;2023-07-31T18:27:23;23.18;57.33
69281;SHT31;56392;51.082;17.080;2023-07-31T18:32:48;23.11;58.31
69281;SHT31;56392;51.082;17.080;2023-07-31T18:38:11;23.09;59.27
69281;SHT31;56392;51.082;17.080;2023-07-31T18:43:34;22.99;59.02
69281;SHT31;56392;51.082;17.080;2023-07-31T18:48:59;22.92;60.15
69281;SHT31;56392;51.082;17.080;2023-07-31T18:54:22;22.85;60.61
69281;SHT31;56392;51.082;17.080;2023-07-31T18:59:45;22.83;59.26
69281;SHT31;56392;51.082;17.080;2023-07-31T19:05:10;22.75;60.08
69281;SHT31;56392;51.082;17.080;2023-07-31T19:10:33;22.68;59.98
69281;SHT31;56392;51.082;17.080;2023-07-31T19:15:57;22.63;60.05
69281;SHT31;56392;51.082;17.080;2023-07-31T19:21:21;22.58;59.95
69281;SHT31;56392;51.082;17.080;2023-07-31T19:26:44;22.51;59.69
69281;SHT31;56392;51.082;17.080;2023-07-31T19:32:07;22.43;60.55
69281;SHT31;56392;51.082;17.080;2023-07-31T19:37:32;22.36;60.61
69281;SHT31;56392;51.082;17.080;2023-07-31T19:42:55;22.32;60.92
69281;SHT31;56392;51.082;17.080;2023-07-31T19:48:22;22.23;61.62
69281;SHT31;56392;51.082;17.080;2023-07-31T19:53:46;22.21;61.55
69281;SHT31;56392;51.082;17.080;2023-07-31T19:59:09;22.17;61.58
69281;SHT31;56392;51.082;17.080;2023-07-31T20:04:33;22.16;62.45
69281;SHT31;56392;51.082;17.080;2023-07-31T20:09:57;22.05;63.01
69281;SHT31;56392;51.082;17.080;2023-07-31T20:15:22;22.06;62.18
69281;SHT31;56392;51.082;17.080;2023-07-31T20:20:45;22.06;62.40
69281;SHT31;56392;51.082;17.080;2023-07-31T20:26:12;22.02;62.84
69281;SHT31;56392;51.082;17.080;2023-07-31T20:31:35;22.02;62.78
69281;SHT31;56392;51.082;17.080;2023-07-31T20:36:59;21.89;64.15
69281;SHT31;56392;51.082;17.080;2023-07-31T20:42:26;21.90;63.13
69281;SHT31;56392;51.082;17.080;2023-07-31T20:47:49;21.92;63.10
69281;SHT31;56392;51.082;17.080;2023-07-31T20:53:12;21.92;62.66
69281;SHT31;56392;51.082;17.080;2023-07-31T20:58:37;21.90;62.55
69281;SHT31;56392;51.082;17.080;2023-07-31T21:04:00;21.88;62.40
69281;SHT31;56392;51.082;17.080;2023-07-31T21:09:24;21.88;62.64
69281;SHT31;56392;51.082;17.080;2023-07-31T21:14:49;21.85;63.71
69281;SHT31;56392;51.082;17.080;2023-07-31T21:20:12;21.82;63.45
69281;SHT31;56392;51.082;17.080;2023-07-31T21:25:36;21.82;63.56
69281;SHT31;56392;51.082;17.080;2023-07-31T21:31:08;21.74;63.48
69281;SHT31;56392;51.082;17.080;2023-07-31T21:36:31;21.69;63.22
69281;SHT31;56392;51.082;17.080;2023-07-31T21:41:55;21.65;63.01
69281;SHT31;56392;51.082;17.080;2023-07-31T21:47:20;21.62;63.03
69281;SHT31;56392;51.082;17.080;2023-07-31T21:52:43;21.61;63.16
69281;SHT31;56392;51.082;17.080;2023-07-31T21:58:06;21.51;63.56
69281;SHT31;56392;51.082;17.080;2023-07-31T22:03:30;21.52;63.28
69281;SHT31;56392;51.082;17.080;2023-07-31T22:08:53;21.51;63.12
69281;SHT31;56392;51.082;17.080;2023-07-31T22:14:16;21.49;63.16
69281;SHT31;56392;51.082;17.080;2023-07-31T22:19:41;21.48;62.99
69281;SHT31;56392;51.082;17.080;2023-07-31T22:25:04;21.46;63.27
69281;SHT31;56392;51.082;17.080;2023-07-31T22:30:28;21.39;63.61
69281;SHT31;56392;51.082;17.080;2023-07-31T22:35:52;21.35;64.06
69281;SHT31;56392;51.082;17.080;2023-07-31T22:41:15;21.32;63.71
69281;SHT31;56392;51.082;17.080;2023-07-31T22:46:38;21.28;64.19
69281;SHT31;56392;51.082;17.080;2023-07-31T22:52:04;21.21;63.96
69281;SHT31;56392;51.082;17.080;2023-07-31T22:57:27;21.24;63.49
69281;SHT31;56392;51.082;17.080;2023-07-31T23:02:50;21.23;63.74
69281;SHT31;56392;51.082;17.080;2023-07-31T23:08:14;21.21;64.10
69281;SHT31;56392;51.082;17.080;2023-07-31T23:13:37;21.17;64.56
69281;SHT31;56392;51.082;17.080;2023-07-31T23:19:00;21.11;64.93
69281;SHT31;56392;51.082;17.080;2023-07-31T23:24:24;21.08;65.01
69281;SHT31;56392;51.082;17.080;2023-07-31T23:29:48;21.00;65.78
69281;SHT31;56392;51.082;17.080;2023-07-31T23:35:11;21.05;64.95
69281;SHT31;56392;51.082;17.080;2023-07-31T23:40:35;21.05;65.04
69281;SHT31;56392;51.082;17.080;2023-07-31T23:45:58;21.05;65.82
69281;SHT31;56392;51.082;17.080;2023-07-31T23:51:21;21.00;66.06
69281;SHT31;56392;51.082;17.080;2023-07-31T23:56:46;20.98;65.60
